Exceptional Flight Instruction

Our Team

Safe Aircraft

Our Rentals

Outstanding Customer Service

Contact Us

AeroCamp 2017

AeroCamp Times (M-F 9AM-3PM)
June 19-23, 2017 – FULL
July 10-14, 2017 – FULL
July 24-28, 2017 - OPEN
$649/wk per Cadet (Roster size limited)

AeroCamp 2.0 Times (M-T 9AM-3PM)
June 26-29, 2017 – FULL
July 17-20, 2017 – FULL
$749/wk per Cadet (Roster size limited)

AeroCamp 3.0 Times (M-W – INCLUDES KITTY HAWK!)
June 12-14, 2017 – OPEN
August 7-9, 2017 – FULL
$849/wk per Cadet (Roster size limited)

AeroCamp 4.0 Times (INCLUDES OSHKOSH!!)
INQUIRE ABOUT 2018
Price TBD (Roster size limited)

About Us

Triad Aviation Academy, LLC


1030 PTI Drive
Greensboro, NC 27409

Phone: (336) 369-2804
Fax: (336) 664-6942

Weather

Available data for KGSO from the past 2 hours
GREENSBORO, NC
Metar
KGSO 182314Z 30018G24KT 10SM TS SCT048CB BKN090 BKN250 29/23 A2988 RMK AO2 TSB13 FRQ LTGCGIC SW OCNL LTG DSNT NE TS SW MOV E TCU DSNT ALQDS T02940233

23:14 UTC

Wind: 300° 18kt

Visibility: 10 SM

Sky: SCT 4800 ft

Temp: 29 deg C / 84.2 deg F

Dewpoint: 23 deg C / 73.4 deg F

Pressure: 29.88 inHg

TAF
KGSO 181758Z 1818/1918 24008KT P6SM SCT040 BKN120 FM182100 23010KT P6SM BKN040 TEMPO 1822/1901 26015G25KT 2SM TSRA BKN025CB FM190300 33005KT P6SM BKN060 BKN250